createdAt,value
2023-03-05T00:00:02.687Z,0.00
2023-03-05T00:01:02.632Z,0.00
2023-03-05T00:02:03.118Z,0.00
2023-03-05T00:03:02.616Z,0.00
2023-03-05T00:04:02.639Z,0.00
2023-03-05T00:05:02.620Z,0.00
2023-03-05T00:06:02.620Z,0.00
2023-03-05T00:07:02.590Z,0.00
2023-03-05T00:08:02.596Z,0.00
2023-03-05T00:09:02.588Z,0.00
2023-03-05T00:10:02.574Z,0.00
2023-03-05T00:11:02.601Z,0.00
2023-03-05T00:12:02.957Z,0.00
2023-03-05T00:13:02.564Z,0.00
2023-03-05T00:14:02.538Z,0.00
2023-03-05T00:15:02.574Z,0.00
2023-03-05T00:16:02.555Z,0.00
2023-03-05T00:17:02.531Z,0.00
2023-03-05T00:18:02.555Z,0.00
2023-03-05T00:19:02.509Z,0.00
2023-03-05T00:20:02.695Z,0.00
2023-03-05T00:21:02.483Z,0.00
2023-03-05T00:22:02.492Z,0.00
2023-03-05T00:23:02.473Z,0.00
2023-03-05T00:24:02.512Z,0.00
2023-03-05T00:25:02.440Z,0.00
2023-03-05T00:26:02.461Z,0.00
2023-03-05T00:27:02.452Z,0.00
2023-03-05T00:28:02.465Z,0.00
2023-03-05T00:29:02.424Z,0.00
2023-03-05T00:30:02.485Z,0.00
2023-03-05T00:31:02.439Z,0.00
2023-03-05T00:32:02.477Z,0.00
2023-03-05T00:33:02.409Z,0.00
2023-03-05T00:34:02.418Z,0.00
2023-03-05T00:35:02.390Z,0.00
2023-03-05T00:36:02.548Z,0.00
2023-03-05T00:37:02.375Z,0.00
2023-03-05T00:38:02.351Z,0.00
2023-03-05T00:39:02.368Z,0.00
2023-03-05T00:40:02.420Z,0.00
2023-03-05T00:41:02.376Z,0.00
2023-03-05T00:42:02.373Z,0.00
2023-03-05T00:43:02.334Z,0.00
2023-03-05T00:44:02.321Z,0.00
2023-03-05T00:45:02.349Z,0.00
2023-03-05T00:46:02.504Z,0.00
2023-03-05T00:47:02.301Z,0.00
2023-03-05T00:48:02.316Z,0.00
2023-03-05T00:49:03.090Z,0.00
2023-03-05T00:50:02.285Z,0.00
2023-03-05T00:51:02.272Z,0.00
2023-03-05T00:52:02.277Z,0.00
2023-03-05T00:53:02.251Z,0.00
2023-03-05T00:54:02.276Z,0.00
2023-03-05T00:55:02.247Z,0.00
2023-03-05T00:56:02.266Z,0.00
2023-03-05T00:57:02.237Z,0.00
2023-03-05T00:58:02.231Z,0.00
2023-03-05T00:59:02.227Z,0.00
2023-03-05T01:00:02.279Z,0.00
2023-03-05T01:01:02.216Z,0.00
2023-03-05T01:02:02.238Z,0.00
2023-03-05T01:03:02.214Z,0.00
2023-03-05T01:04:02.173Z,0.00
2023-03-05T01:05:02.198Z,0.00
2023-03-05T01:06:02.202Z,0.00
2023-03-05T01:07:02.177Z,0.00
2023-03-05T01:08:02.159Z,0.00
2023-03-05T01:09:02.156Z,0.00
2023-03-05T01:10:02.181Z,0.00
2023-03-05T01:11:02.104Z,0.00
2023-03-05T01:12:02.142Z,0.00
2023-03-05T01:13:02.108Z,0.00
2023-03-05T01:14:02.117Z,0.00
2023-03-05T01:15:02.117Z,0.00
2023-03-05T01:16:02.115Z,0.00
2023-03-05T01:17:02.066Z,0.00
2023-03-05T01:18:02.497Z,0.00
2023-03-05T01:19:02.059Z,0.00
2023-03-05T01:20:16.082Z,0.00
2023-03-05T01:21:02.053Z,0.00
2023-03-05T01:22:02.050Z,0.00
2023-03-05T01:23:02.045Z,0.00
2023-03-05T01:24:02.071Z,0.00
2023-03-05T01:25:01.991Z,0.00
2023-03-05T01:26:02.012Z,0.00
2023-03-05T01:27:02.022Z,0.00
2023-03-05T01:28:02.004Z,0.00
2023-03-05T01:29:01.981Z,0.00
2023-03-05T01:30:02.091Z,0.00
2023-03-05T01:31:02.002Z,0.00
2023-03-05T01:32:02.066Z,0.00
2023-03-05T01:33:02.004Z,0.00
2023-03-05T01:34:02.002Z,0.00
2023-03-05T01:35:01.980Z,0.00
2023-03-05T01:36:02.021Z,0.00
2023-03-05T01:37:01.938Z,0.00
2023-03-05T01:38:01.919Z,0.00
2023-03-05T01:39:01.918Z,0.00
2023-03-05T01:40:01.934Z,0.00
2023-03-05T01:41:01.922Z,0.00
2023-03-05T01:42:01.992Z,0.00
2023-03-05T01:43:01.925Z,0.00
2023-03-05T01:44:01.904Z,0.00
2023-03-05T01:45:01.905Z,0.00
2023-03-05T01:46:01.897Z,0.00
2023-03-05T01:47:01.881Z,0.00
2023-03-05T01:48:01.928Z,0.00
2023-03-05T01:49:01.891Z,0.00
2023-03-05T01:50:01.859Z,0.00
2023-03-05T01:51:01.862Z,0.00
2023-03-05T01:52:01.859Z,0.00
2023-03-05T01:53:01.838Z,0.00
2023-03-05T01:54:01.903Z,0.00
2023-03-05T01:55:01.881Z,0.00
2023-03-05T01:56:01.803Z,0.00
2023-03-05T01:57:01.823Z,0.00
2023-03-05T01:58:01.839Z,0.00
2023-03-05T01:59:01.791Z,0.00
2023-03-05T02:00:01.877Z,0.00
2023-03-05T02:01:01.825Z,0.00
2023-03-05T02:02:01.788Z,0.00
2023-03-05T02:03:01.802Z,0.00
2023-03-05T02:04:01.837Z,0.00
2023-03-05T02:05:01.756Z,0.00
2023-03-05T02:06:01.795Z,0.00
2023-03-05T02:07:01.745Z,0.00
2023-03-05T02:08:01.751Z,0.00
2023-03-05T02:09:01.860Z,0.00
2023-03-05T02:10:01.723Z,0.00
2023-03-05T02:11:01.729Z,0.00
2023-03-05T02:12:01.782Z,0.00
2023-03-05T02:13:01.700Z,0.00
2023-03-05T02:14:01.685Z,0.00
2023-03-05T02:15:01.704Z,0.00
2023-03-05T02:16:01.751Z,0.00
2023-03-05T02:17:01.661Z,0.00
2023-03-05T02:18:01.739Z,0.00
2023-03-05T02:19:01.647Z,0.00
2023-03-05T02:20:01.660Z,0.00
2023-03-05T02:21:01.663Z,0.00
2023-03-05T02:22:01.646Z,0.00
2023-03-05T02:23:01.621Z,0.00
2023-03-05T02:24:02.094Z,0.00
2023-03-05T02:25:01.621Z,0.00
2023-03-05T02:26:01.638Z,0.00
2023-03-05T02:27:01.621Z,0.00
2023-03-05T02:28:01.655Z,0.00
2023-03-05T02:29:01.581Z,0.00
2023-03-05T02:30:01.634Z,0.00
2023-03-05T02:31:01.571Z,0.00
2023-03-05T02:32:01.747Z,0.00
2023-03-05T02:33:01.597Z,0.00
2023-03-05T02:34:01.577Z,0.00
2023-03-05T02:35:01.544Z,0.00
2023-03-05T02:36:01.622Z,0.00
2023-03-05T02:37:01.546Z,0.00
2023-03-05T02:38:01.546Z,0.00
2023-03-05T02:39:01.525Z,0.00
2023-03-05T02:40:01.520Z,0.00
2023-03-05T02:41:01.548Z,0.00
2023-03-05T02:42:01.580Z,0.00
2023-03-05T02:43:01.506Z,0.00
2023-03-05T02:44:01.505Z,0.00
2023-03-05T02:45:01.503Z,0.00
2023-03-05T02:46:01.538Z,0.00
2023-03-05T02:47:01.488Z,0.00
2023-03-05T02:48:01.544Z,0.00
2023-03-05T02:49:01.482Z,0.00
2023-03-05T02:50:01.489Z,0.00
2023-03-05T02:51:01.485Z,0.00
2023-03-05T02:52:01.459Z,0.00
2023-03-05T02:53:01.449Z,0.00
2023-03-05T02:54:01.486Z,0.00
2023-03-05T02:55:01.425Z,0.00
2023-03-05T02:56:01.424Z,0.00
2023-03-05T02:57:01.432Z,0.00
2023-03-05T02:58:01.403Z,0.00
2023-03-05T02:59:01.441Z,0.00
2023-03-05T03:00:01.651Z,0.00
2023-03-05T03:01:01.409Z,0.00
2023-03-05T03:02:22.365Z,0.00
2023-03-05T03:03:01.428Z,0.00
2023-03-05T03:04:01.386Z,0.00
2023-03-05T03:05:01.371Z,0.00
2023-03-05T03:06:01.423Z,0.00
2023-03-05T03:07:01.322Z,0.00
2023-03-05T03:08:01.342Z,0.00
2023-03-05T03:09:01.322Z,0.00
2023-03-05T03:10:01.306Z,0.00
2023-03-05T03:11:01.327Z,0.00
2023-03-05T03:12:01.383Z,0.00
2023-03-05T03:13:01.311Z,0.00
2023-03-05T03:14:01.292Z,0.00
2023-03-05T03:15:29.072Z,0.00
2023-03-05T03:16:01.271Z,0.00
2023-03-05T03:17:01.356Z,0.00
2023-03-05T03:18:01.302Z,0.00
2023-03-05T03:19:01.280Z,0.00
2023-03-05T03:20:01.291Z,0.00
2023-03-05T03:21:01.292Z,0.00
2023-03-05T03:22:01.270Z,0.00
2023-03-05T03:23:01.255Z,0.00
2023-03-05T03:24:01.503Z,0.00
2023-03-05T03:25:01.212Z,0.00
2023-03-05T03:26:01.223Z,0.00
2023-03-05T03:27:01.251Z,0.00
2023-03-05T03:28:01.193Z,0.00
2023-03-05T03:29:01.210Z,0.00
2023-03-05T03:30:01.219Z,0.00
2023-03-05T03:31:01.259Z,0.00
2023-03-05T03:32:01.197Z,0.00
2023-03-05T03:33:01.167Z,0.00
2023-03-05T03:34:01.175Z,0.00
2023-03-05T03:35:01.136Z,0.00
2023-03-05T03:36:01.366Z,0.00
2023-03-05T03:37:01.149Z,0.00
2023-03-05T03:38:01.150Z,0.00
2023-03-05T03:39:01.135Z,0.00
2023-03-05T03:40:01.152Z,0.00
2023-03-05T03:41:01.119Z,0.00
2023-03-05T03:42:01.129Z,0.00
2023-03-05T03:43:01.119Z,0.00
2023-03-05T03:44:01.092Z,0.00
2023-03-05T03:45:01.102Z,0.00
2023-03-05T03:46:01.143Z,0.00
2023-03-05T03:47:01.068Z,0.00
2023-03-05T03:48:01.132Z,0.00
2023-03-05T03:49:01.031Z,0.00
2023-03-05T03:50:01.052Z,0.00
2023-03-05T03:51:01.061Z,0.00
2023-03-05T03:52:01.031Z,0.00
2023-03-05T03:53:01.024Z,0.00
2023-03-05T03:54:01.090Z,0.00
2023-03-05T03:55:01.012Z,0.00
2023-03-05T03:56:01.004Z,0.00
2023-03-05T03:57:01.011Z,0.00
2023-03-05T03:58:01.011Z,0.00
2023-03-05T03:59:00.991Z,0.00
2023-03-05T04:00:01.032Z,0.00
2023-03-05T04:01:01.034Z,0.00
2023-03-05T04:02:00.966Z,0.00
2023-03-05T04:03:00.989Z,0.00
2023-03-05T04:04:01.031Z,0.00
2023-03-05T04:05:00.959Z,0.00
2023-03-05T04:06:01.000Z,0.00
2023-03-05T04:07:00.909Z,0.00
2023-03-05T04:08:00.932Z,0.00
2023-03-05T04:09:00.909Z,0.00
2023-03-05T04:10:00.935Z,0.00
2023-03-05T04:11:00.940Z,0.00
2023-03-05T04:12:00.953Z,0.00
2023-03-05T04:13:00.913Z,0.00
2023-03-05T04:14:00.914Z,0.00
2023-03-05T04:15:00.879Z,0.00
2023-03-05T04:16:00.957Z,0.00
2023-03-05T04:17:00.875Z,0.00
2023-03-05T04:18:00.941Z,0.00
2023-03-05T04:19:00.856Z,0.00
2023-03-05T04:20:00.862Z,0.00
2023-03-05T04:21:00.862Z,0.00
2023-03-05T04:22:00.825Z,0.00
2023-03-05T04:23:00.833Z,0.00
2023-03-05T04:24:00.927Z,0.00
2023-03-05T04:25:00.798Z,0.00
2023-03-05T04:26:00.830Z,0.00
2023-03-05T04:27:00.820Z,0.00
2023-03-05T04:28:00.797Z,0.00
2023-03-05T04:29:00.775Z,0.00
2023-03-05T04:30:01.026Z,0.00
2023-03-05T04:31:00.792Z,0.00
2023-03-05T04:32:00.821Z,0.00
2023-03-05T04:33:00.747Z,0.00
2023-03-05T04:34:00.773Z,0.00
2023-03-05T04:35:00.748Z,0.00
2023-03-05T04:36:00.807Z,0.00
2023-03-05T04:37:00.718Z,0.00
2023-03-05T04:38:00.703Z,0.00
2023-03-05T04:39:00.723Z,0.00
2023-03-05T04:40:00.711Z,0.00
2023-03-05T04:41:00.677Z,0.00
2023-03-05T04:42:00.740Z,0.00
2023-03-05T04:43:00.669Z,0.00
2023-03-05T04:44:00.672Z,0.00
2023-03-05T04:45:00.676Z,0.00
2023-03-05T04:46:00.683Z,0.00
2023-03-05T04:47:00.668Z,0.00
2023-03-05T04:48:00.693Z,0.00
2023-03-05T04:49:00.624Z,0.00
2023-03-05T04:50:00.635Z,0.00
2023-03-05T04:51:00.644Z,0.00
2023-03-05T04:52:00.622Z,0.00
2023-03-05T04:53:00.601Z,0.00
2023-03-05T04:54:00.685Z,0.00
2023-03-05T04:55:00.607Z,0.00
2023-03-05T04:56:00.604Z,0.00
2023-03-05T04:57:00.597Z,0.00
2023-03-05T04:58:00.585Z,0.00
2023-03-05T04:59:00.604Z,0.00
2023-03-05T05:00:00.659Z,0.00
2023-03-05T05:01:00.539Z,0.00
2023-03-05T05:02:00.615Z,0.00
2023-03-05T05:03:00.563Z,0.00
2023-03-05T05:04:00.530Z,0.00
2023-03-05T05:05:00.548Z,0.00
2023-03-05T05:06:00.574Z,0.00
2023-03-05T05:07:00.525Z,0.00
2023-03-05T05:08:00.527Z,0.00
2023-03-05T05:09:00.491Z,0.00
2023-03-05T05:10:00.477Z,0.00
2023-03-05T05:11:00.511Z,0.00
2023-03-05T05:12:00.561Z,0.00
2023-03-05T05:13:00.485Z,0.00
2023-03-05T05:14:00.474Z,0.00
2023-03-05T05:15:00.449Z,0.00
2023-03-05T05:16:00.520Z,0.00
2023-03-05T05:17:00.469Z,0.00
2023-03-05T05:18:00.492Z,0.00
2023-03-05T05:19:00.520Z,0.00
2023-03-05T05:20:00.460Z,0.00
2023-03-05T05:21:00.404Z,0.00
2023-03-05T05:22:00.408Z,0.00
2023-03-05T05:23:00.435Z,0.00
2023-03-05T05:24:00.423Z,0.00
2023-03-05T05:25:00.417Z,0.00
2023-03-05T05:26:00.412Z,0.00
2023-03-05T05:27:00.372Z,0.00
2023-03-05T05:28:00.371Z,0.00
2023-03-05T05:29:00.375Z,0.00
2023-03-05T05:30:00.787Z,1.00
2023-03-05T05:31:00.356Z,1.00
2023-03-05T05:32:00.395Z,1.00
2023-03-05T05:33:00.330Z,0.00
2023-03-05T05:34:00.315Z,0.00
2023-03-05T05:35:00.319Z,0.00
2023-03-05T05:36:00.419Z,1.00
2023-03-05T05:37:00.318Z,1.00
2023-03-05T05:38:00.299Z,1.00
2023-03-05T05:39:00.323Z,1.00
2023-03-05T05:40:00.272Z,1.00
2023-03-05T05:41:00.298Z,1.00
2023-03-05T05:42:00.320Z,2.00
2023-03-05T05:43:00.300Z,2.00
2023-03-05T05:44:43.702Z,3.00
2023-03-05T05:45:22.292Z,6.00
2023-03-05T05:46:31.826Z,5.00
2023-03-05T05:47:01.351Z,6.00
2023-03-05T05:48:00.232Z,4.00
2023-03-05T05:49:00.229Z,7.00
2023-03-05T05:50:00.220Z,8.00
2023-03-05T05:51:00.219Z,9.00
2023-03-05T05:52:00.233Z,10.00
2023-03-05T05:53:00.282Z,12.00
2023-03-05T05:54:00.194Z,14.00
2023-03-05T05:55:00.199Z,15.00
2023-03-05T05:56:12.309Z,17.00
2023-03-05T05:57:00.193Z,18.00
2023-03-05T05:58:00.181Z,19.00
2023-03-05T05:59:22.533Z,22.00
2023-03-05T06:00:01.174Z,25.00
2023-03-05T06:01:00.149Z,30.00
2023-03-05T06:02:00.226Z,33.00
2023-03-05T06:03:00.206Z,36.00
2023-03-05T06:04:00.117Z,39.00
2023-03-05T06:05:06.253Z,39.00
2023-03-05T06:06:00.140Z,43.00
2023-03-05T06:07:00.152Z,43.00
2023-03-05T06:08:00.110Z,45.00
2023-03-05T06:09:00.121Z,48.00
2023-03-05T06:10:00.078Z,50.00
2023-03-05T06:11:00.128Z,55.00
2023-03-05T06:12:00.074Z,60.00
2023-03-05T06:13:00.088Z,64.00
2023-03-05T06:14:00.092Z,68.00
2023-03-05T06:15:00.079Z,74.00
2023-03-05T06:16:00.040Z,77.00
2023-03-05T06:17:00.112Z,82.00
2023-03-05T06:18:00.042Z,87.00
2023-03-05T06:19:00.065Z,90.00
2023-03-05T06:20:00.045Z,94.00
2023-03-05T06:21:00.014Z,98.00
2023-03-05T06:22:00.013Z,100.00
2023-03-05T06:23:00.022Z,101.00
2023-03-05T06:23:59.987Z,106.00
2023-03-05T06:24:59.973Z,110.00
2023-03-05T06:25:59.967Z,118.00
2023-03-05T06:27:16.296Z,123.00
2023-03-05T06:27:59.987Z,129.00
2023-03-05T06:28:59.954Z,132.00
2023-03-05T06:29:59.971Z,137.00
2023-03-05T06:31:00.033Z,146.00
2023-03-05T06:31:59.946Z,156.00
2023-03-05T06:32:59.931Z,169.00
2023-03-05T06:33:59.924Z,178.00
2023-03-05T06:35:00.196Z,190.00
2023-03-05T06:36:14.257Z,206.00
2023-03-05T06:36:59.910Z,220.00
2023-03-05T06:37:59.889Z,236.00
2023-03-05T06:38:59.916Z,238.00
2023-03-05T06:39:59.917Z,238.00
2023-03-05T06:40:59.915Z,246.00
2023-03-05T06:41:59.867Z,260.00
2023-03-05T06:42:59.871Z,276.00
2023-03-05T06:43:59.865Z,298.00
2023-03-05T06:44:59.852Z,330.00
2023-03-05T06:45:59.906Z,362.00
2023-03-05T06:46:59.868Z,387.00
2023-03-05T06:47:59.821Z,406.00
2023-03-05T06:48:59.833Z,418.00
2023-03-05T06:49:59.817Z,440.00
2023-03-05T06:50:59.814Z,476.00
2023-03-05T06:51:59.788Z,517.00
2023-03-05T06:52:59.839Z,567.00
2023-03-05T06:53:59.793Z,617.00
2023-03-05T06:54:59.767Z,666.00
2023-03-05T06:55:59.850Z,692.00
2023-03-05T06:56:59.776Z,685.00
2023-03-05T06:57:59.770Z,663.00
2023-03-05T06:58:59.817Z,635.00
2023-03-05T06:59:59.751Z,622.00
2023-03-05T07:00:59.766Z,618.00
2023-03-05T07:01:59.750Z,635.00
2023-03-05T07:02:59.745Z,653.00
2023-03-05T07:03:59.729Z,678.00
2023-03-05T07:04:59.775Z,716.00
2023-03-05T07:05:59.719Z,752.00
2023-03-05T07:07:09.745Z,778.00
2023-03-05T07:07:59.686Z,789.00
2023-03-05T07:08:59.698Z,767.00
2023-03-05T07:09:59.691Z,727.00
2023-03-05T07:10:59.727Z,705.00
2023-03-05T07:11:59.680Z,691.00
2023-03-05T07:12:59.649Z,680.00
2023-03-05T07:13:59.647Z,667.00
2023-03-05T07:14:59.657Z,657.00
2023-03-05T07:15:59.658Z,655.00
2023-03-05T07:16:59.728Z,657.00
2023-03-05T07:17:59.629Z,647.00
2023-03-05T07:18:59.612Z,645.00
2023-03-05T07:19:59.607Z,659.00
2023-03-05T07:20:59.567Z,659.00
2023-03-05T07:21:59.587Z,637.00
2023-03-05T07:22:59.638Z,623.00
2023-03-05T07:23:59.570Z,621.00
2023-03-05T07:24:59.549Z,613.00
2023-03-05T07:25:59.599Z,587.00
2023-03-05T07:26:59.534Z,560.00
2023-03-05T07:27:59.548Z,540.00
2023-03-05T07:28:59.611Z,521.00
2023-03-05T07:29:59.552Z,513.00
2023-03-05T07:30:59.634Z,514.00
2023-03-05T07:31:59.548Z,519.00
2023-03-05T07:32:59.580Z,528.00
2023-03-05T07:33:59.499Z,523.00
2023-03-05T07:35:00.006Z,516.00
2023-03-05T07:35:59.552Z,501.00
2023-03-05T07:36:59.519Z,480.00
2023-03-05T07:37:59.488Z,484.00
2023-03-05T07:38:59.557Z,501.00
2023-03-05T07:39:59.471Z,520.00
2023-03-05T07:40:59.528Z,543.00
2023-03-05T07:41:59.456Z,575.00
2023-03-05T07:42:59.453Z,620.00
2023-03-05T07:43:59.451Z,661.00
2023-03-05T07:45:05.857Z,694.00
2023-03-05T07:45:59.463Z,732.00
2023-03-05T07:46:59.474Z,775.00
2023-03-05T07:47:59.412Z,815.00
2023-03-05T07:48:59.409Z,858.00
2023-03-05T07:49:59.392Z,927.00
2023-03-05T07:50:59.531Z,1025.00
2023-03-05T07:51:59.389Z,1133.00
2023-03-05T07:52:59.445Z,1241.00
2023-03-05T07:53:59.426Z,1364.00
2023-03-05T07:54:59.364Z,1475.00
2023-03-05T07:55:59.498Z,1558.00
2023-03-05T07:56:59.343Z,1611.00
2023-03-05T07:57:59.351Z,1629.00
2023-03-05T07:58:59.364Z,1579.00
2023-03-05T07:59:59.319Z,1527.00
2023-03-05T08:00:59.312Z,1541.00
2023-03-05T08:01:59.318Z,1525.00
2023-03-05T08:02:59.290Z,1494.00
2023-03-05T08:04:09.547Z,1463.00
2023-03-05T08:04:59.359Z,1444.00
2023-03-05T08:05:59.311Z,1422.00
2023-03-05T08:06:59.257Z,1386.00
2023-03-05T08:07:59.265Z,1379.00
2023-03-05T08:08:59.257Z,1353.00
2023-03-05T08:09:59.275Z,1305.00
2023-03-05T08:10:59.256Z,1246.00
2023-03-05T08:11:59.267Z,1212.00
2023-03-05T08:12:59.241Z,1206.00
2023-03-05T08:13:59.231Z,1210.00
2023-03-05T08:14:59.229Z,1195.00
2023-03-05T08:15:59.325Z,1149.00
2023-03-05T08:16:59.266Z,1136.00
2023-03-05T08:17:59.207Z,1119.00
2023-03-05T08:18:59.208Z,1112.00
2023-03-05T08:19:59.182Z,1115.00
2023-03-05T08:20:59.156Z,1101.00
2023-03-05T08:21:59.171Z,1081.00
2023-03-05T08:22:59.206Z,1093.00
2023-03-05T08:23:59.156Z,1134.00
2023-03-05T08:24:59.160Z,1188.00
2023-03-05T08:25:59.217Z,1241.00
2023-03-05T08:26:59.141Z,1295.00
2023-03-05T08:27:59.150Z,1354.00
2023-03-05T08:28:59.158Z,1397.00
2023-03-05T08:29:59.144Z,1429.00
2023-03-05T08:30:59.119Z,1468.00
2023-03-05T08:31:59.125Z,1494.00
2023-03-05T08:32:59.094Z,1491.00
2023-03-05T08:33:59.092Z,1478.00
2023-03-05T08:34:59.110Z,1499.00
2023-03-05T08:35:59.135Z,1547.00
2023-03-05T08:36:59.078Z,1567.00
2023-03-05T08:37:59.183Z,1570.00
2023-03-05T08:38:59.082Z,1536.00
2023-03-05T08:39:59.048Z,1482.00
2023-03-05T08:40:59.616Z,1427.00
2023-03-05T08:41:59.046Z,1394.00
2023-03-05T08:42:59.134Z,1374.00
2023-03-05T08:43:59.040Z,1362.00
2023-03-05T08:44:59.071Z,1330.00
2023-03-05T08:45:59.018Z,1283.00
2023-03-05T08:46:59.064Z,1259.00
2023-03-05T08:47:59.011Z,1274.00
2023-03-05T08:48:58.988Z,1319.00
2023-03-05T08:49:58.974Z,1362.00
2023-03-05T08:50:58.965Z,1405.00
2023-03-05T08:51:58.958Z,1486.00
2023-03-05T08:52:58.985Z,1604.00
2023-03-05T08:53:58.948Z,1682.00
2023-03-05T08:54:58.918Z,1749.00
2023-03-05T08:55:58.936Z,1792.00
2023-03-05T08:56:58.929Z,1800.00
2023-03-05T08:57:58.900Z,1835.00
2023-03-05T08:58:58.948Z,1919.00
2023-03-05T08:59:58.895Z,2003.00
2023-03-05T09:01:02.517Z,2094.00
2023-03-05T09:02:05.045Z,2195.00
2023-03-05T09:02:58.960Z,2292.00
2023-03-05T09:03:58.895Z,2371.00
2023-03-05T09:04:58.941Z,2500.00
2023-03-05T09:05:58.862Z,2643.00
2023-03-05T09:06:58.866Z,2821.00
2023-03-05T09:07:58.845Z,2970.00
2023-03-05T09:08:58.841Z,2983.00
2023-03-05T09:09:58.830Z,2968.00
2023-03-05T09:10:58.876Z,2935.00
2023-03-05T09:11:58.807Z,2912.00
2023-03-05T09:12:58.814Z,2911.00
2023-03-05T09:13:58.814Z,2897.00
2023-03-05T09:14:58.816Z,2902.00
2023-03-05T09:15:58.836Z,2955.00
2023-03-05T09:16:58.837Z,2951.00
2023-03-05T09:17:58.782Z,2912.00
2023-03-05T09:18:58.799Z,2919.00
2023-03-05T09:19:58.760Z,2754.00
2023-03-05T09:20:58.774Z,3104.00
2023-03-05T09:21:58.754Z,2609.00
2023-03-05T09:22:58.757Z,2584.00
2023-03-05T09:23:58.740Z,2509.00
2023-03-05T09:24:58.742Z,2492.00
2023-03-05T09:25:58.725Z,2589.00
2023-03-05T09:26:58.739Z,2754.00
2023-03-05T09:27:58.710Z,2927.00
2023-03-05T09:28:58.729Z,3108.00
2023-03-05T09:29:58.704Z,3951.00
2023-03-05T09:30:58.713Z,4466.00
2023-03-05T09:31:58.735Z,3854.00
2023-03-05T09:32:58.688Z,3491.00
2023-03-05T09:33:58.694Z,3250.00
2023-03-05T09:34:58.709Z,2917.00
2023-03-05T09:35:58.723Z,2748.00
2023-03-05T09:36:58.644Z,2592.00
2023-03-05T09:37:58.629Z,2434.00
2023-03-05T09:38:58.647Z,2251.00
2023-03-05T09:39:58.626Z,1990.00
2023-03-05T09:40:58.672Z,1688.00
2023-03-05T09:41:58.632Z,1595.00
2023-03-05T09:42:58.597Z,1528.00
2023-03-05T09:43:58.611Z,1530.00
2023-03-05T09:44:58.607Z,1579.00
2023-03-05T09:45:58.646Z,1666.00
2023-03-05T09:46:59.047Z,1764.00
2023-03-05T09:47:58.564Z,1833.00
2023-03-05T09:48:58.576Z,1882.00
2023-03-05T09:49:58.560Z,1952.00
2023-03-05T09:50:58.538Z,2142.00
2023-03-05T09:51:58.538Z,2373.00
2023-03-05T09:52:58.651Z,2564.00
2023-03-05T09:53:59.489Z,2661.00
2023-03-05T09:54:58.543Z,2544.00
2023-03-05T09:55:58.526Z,2377.00
2023-03-05T09:56:58.487Z,2279.00
2023-03-05T09:57:58.518Z,2171.00
2023-03-05T09:58:58.546Z,2020.00
2023-03-05T09:59:58.478Z,1863.00
2023-03-05T10:00:58.476Z,1661.00
2023-03-05T10:01:58.482Z,1589.00
2023-03-05T10:02:58.558Z,1560.00
2023-03-05T10:03:58.523Z,1601.00
2023-03-05T10:04:58.514Z,1616.00
2023-03-05T10:05:58.453Z,1560.00
2023-03-05T10:06:58.476Z,1547.00
2023-03-05T10:07:58.439Z,1587.00
2023-03-05T10:08:58.439Z,1516.00
2023-03-05T10:09:58.410Z,1354.00
2023-03-05T10:10:58.434Z,1254.00
2023-03-05T10:11:58.444Z,1248.00
2023-03-05T10:12:58.389Z,1269.00
2023-03-05T10:13:58.393Z,1322.00
2023-03-05T10:14:58.394Z,1368.00
2023-03-05T10:15:58.369Z,1445.00
2023-03-05T10:16:58.423Z,1595.00
2023-03-05T10:17:58.353Z,1820.00
2023-03-05T10:18:58.380Z,1948.00
2023-03-05T10:19:58.340Z,1893.00
2023-03-05T10:20:58.344Z,1694.00
2023-03-05T10:21:58.319Z,1468.00
2023-03-05T10:22:58.373Z,1325.00
2023-03-05T10:23:58.331Z,1288.00
2023-03-05T10:24:58.300Z,1291.00
2023-03-05T10:25:58.302Z,1281.00
2023-03-05T10:26:58.344Z,1312.00
2023-03-05T10:27:58.286Z,1384.00
2023-03-05T10:28:58.325Z,1480.00
2023-03-05T10:29:58.304Z,1561.00
2023-03-05T10:30:58.272Z,1611.00
2023-03-05T10:31:58.346Z,1627.00
2023-03-05T10:32:58.244Z,1593.00
2023-03-05T10:33:58.246Z,1533.00
2023-03-05T10:34:58.273Z,1455.00
2023-03-05T10:35:58.281Z,1426.00
2023-03-05T10:36:58.468Z,1435.00
2023-03-05T10:37:58.216Z,1434.00
2023-03-05T10:38:58.212Z,1417.00
2023-03-05T10:39:58.220Z,1397.00
2023-03-05T10:40:58.226Z,1393.00
2023-03-05T10:41:58.194Z,1397.00
2023-03-05T10:42:58.186Z,1388.00
2023-03-05T10:43:58.183Z,1392.00
2023-03-05T10:44:58.192Z,1440.00
2023-03-05T10:45:58.233Z,1499.00
2023-03-05T10:46:58.403Z,1523.00
2023-03-05T10:47:58.137Z,1530.00
2023-03-05T10:48:58.131Z,1525.00
2023-03-05T10:49:58.148Z,1509.00
2023-03-05T10:50:58.116Z,1495.00
2023-03-05T10:51:58.105Z,1407.00
2023-03-05T10:52:58.193Z,1305.00
2023-03-05T10:53:58.140Z,1230.00
2023-03-05T10:54:58.095Z,1205.00
2023-03-05T10:55:58.093Z,1249.00
2023-03-05T10:56:58.087Z,1363.00
2023-03-05T10:57:58.075Z,1435.00
2023-03-05T10:58:58.142Z,1390.00
2023-03-05T10:59:58.070Z,1256.00
2023-03-05T11:00:58.134Z,1202.00
2023-03-05T11:01:58.042Z,1224.00
2023-03-05T11:02:58.062Z,1251.00
2023-03-05T11:03:58.033Z,1296.00
2023-03-05T11:04:58.095Z,1361.00
2023-03-05T11:05:58.065Z,1404.00
2023-03-05T11:06:58.019Z,1409.00
2023-03-05T11:07:58.028Z,1441.00
2023-03-05T11:08:58.058Z,1547.00
2023-03-05T11:09:58.031Z,1706.00
2023-03-05T11:10:58.070Z,1856.00
2023-03-05T11:11:57.968Z,1903.00
2023-03-05T11:12:57.969Z,1907.00
2023-03-05T11:13:58.026Z,1939.00
2023-03-05T11:14:57.945Z,1949.00
2023-03-05T11:15:57.980Z,1998.00
2023-03-05T11:16:58.026Z,2186.00
2023-03-05T11:17:57.957Z,2521.00
2023-03-05T11:18:57.940Z,2921.00
2023-03-05T11:19:57.938Z,3198.00
2023-03-05T11:20:57.923Z,3254.00
2023-03-05T11:21:59.808Z,3253.00
2023-03-05T11:22:57.959Z,3311.00
2023-03-05T11:23:57.901Z,3319.00
2023-03-05T11:24:57.885Z,3240.00
2023-03-05T11:25:57.937Z,3098.00
2023-03-05T11:26:57.952Z,2944.00
2023-03-05T11:27:57.876Z,2858.00
2023-03-05T11:28:57.959Z,2804.00
2023-03-05T11:29:57.868Z,2678.00
2023-03-05T11:30:57.950Z,2489.00
2023-03-05T11:31:57.908Z,2263.00
2023-03-05T11:32:57.906Z,2066.00
2023-03-05T11:33:57.976Z,1941.00
2023-03-05T11:34:57.880Z,1784.00
2023-03-05T11:35:57.899Z,1594.00
2023-03-05T11:36:57.791Z,1540.00
2023-03-05T11:37:57.809Z,1642.00
2023-03-05T11:38:57.786Z,1701.00
2023-03-05T11:39:57.812Z,1708.00
2023-03-05T11:40:57.954Z,1633.00
2023-03-05T11:41:57.770Z,1458.00
2023-03-05T11:42:57.769Z,1232.00
2023-03-05T11:43:57.769Z,1065.00
2023-03-05T11:44:57.777Z,1010.00
2023-03-05T11:45:57.754Z,1040.00
2023-03-05T11:46:57.766Z,1140.00
2023-03-05T11:47:57.735Z,1260.00
2023-03-05T11:48:57.761Z,1405.00
2023-03-05T11:49:57.709Z,1620.00
2023-03-05T11:50:57.712Z,1907.00
2023-03-05T11:51:57.708Z,2204.00
2023-03-05T11:52:58.306Z,2452.00
2023-03-05T11:53:57.766Z,2624.00
2023-03-05T11:54:57.691Z,2766.00
2023-03-05T11:55:57.688Z,2760.00
2023-03-05T11:56:57.659Z,2603.00
2023-03-05T11:57:57.681Z,2463.00
2023-03-05T11:58:57.718Z,2364.00
2023-03-05T11:59:57.673Z,2313.00
2023-03-05T12:00:57.649Z,2384.00
2023-03-05T12:01:57.650Z,2492.00
2023-03-05T12:02:57.669Z,2544.00
2023-03-05T12:03:57.659Z,2520.00
2023-03-05T12:04:57.651Z,2430.00
2023-03-05T12:05:57.620Z,2303.00
2023-03-05T12:06:57.602Z,2246.00
2023-03-05T12:07:57.617Z,2227.00
2023-03-05T12:08:57.701Z,2197.00
2023-03-05T12:09:57.594Z,2103.00
2023-03-05T12:10:57.647Z,2008.00
2023-03-05T12:11:57.586Z,1912.00
2023-03-05T12:12:57.574Z,1808.00
2023-03-05T12:13:57.577Z,1729.00
2023-03-05T12:14:57.554Z,1649.00
2023-03-05T12:15:57.579Z,1561.00
2023-03-05T12:16:57.581Z,1482.00
2023-03-05T12:17:57.540Z,1419.00
2023-03-05T12:18:57.531Z,1365.00
2023-03-05T12:19:57.506Z,1296.00
2023-03-05T12:20:57.529Z,1224.00
2023-03-05T12:21:57.518Z,1156.00
2023-03-05T12:22:57.560Z,1060.00
2023-03-05T12:23:57.494Z,952.00
2023-03-05T12:24:57.512Z,868.00
2023-03-05T12:25:57.492Z,833.00
2023-03-05T12:26:57.474Z,817.00
2023-03-05T12:27:57.471Z,792.00
2023-03-05T12:28:57.599Z,742.00
2023-03-05T12:29:57.486Z,669.00
2023-03-05T12:30:57.453Z,589.00
2023-03-05T12:31:57.437Z,528.00
2023-03-05T12:32:57.421Z,496.00
2023-03-05T12:33:57.990Z,478.00
2023-03-05T12:34:57.480Z,474.00
2023-03-05T12:35:57.438Z,492.00
2023-03-05T12:36:57.429Z,561.00
2023-03-05T12:37:59.545Z,667.00
2023-03-05T12:38:57.483Z,784.00
2023-03-05T12:39:57.401Z,915.00
2023-03-05T12:40:57.451Z,1017.00
2023-03-05T12:41:57.379Z,1114.00